sensor_id;sensor_type;location;lat;lon;timestamp;temperature;humidity
8231;DHT22;4156;50.908;6.974;2023-10-19T00:02:06;12.90;99.90
8231;DHT22;4156;50.908;6.974;2023-10-19T00:04:32;12.90;99.90
8231;DHT22;4156;50.908;6.974;2023-10-19T00:07:02;12.90;99.90
8231;DHT22;4156;50.908;6.974;2023-10-19T00:09:30;13.00;99.90
8231;DHT22;4156;50.908;6.974;2023-10-19T00:12:01;13.00;99.90
8231;DHT22;4156;50.908;6.974;2023-10-19T00:14:27;13.00;99.90
8231;DHT22;4156;50.908;6.974;2023-10-19T00:16:53;13.00;99.90
8231;DHT22;4156;50.908;6.974;2023-10-19T00:19:19;13.00;99.90
8231;DHT22;4156;50.908;6.974;2023-10-19T00:21:46;13.10;99.90
8231;DHT22;4156;50.908;6.974;2023-10-19T00:24:17;13.00;99.90
8231;DHT22;4156;50.908;6.974;2023-10-19T00:26:45;13.00;99.90
8231;DHT22;4156;50.908;6.974;2023-10-19T00:29:10;13.00;99.90
8231;DHT22;4156;50.908;6.974;2023-10-19T00:31:56;13.10;99.90
8231;DHT22;4156;50.908;6.974;2023-10-19T00:34:22;13.10;99.90
8231;DHT22;4156;50.908;6.974;2023-10-19T00:36:49;13.10;99.90
8231;DHT22;4156;50.908;6.974;2023-10-19T00:39:16;13.10;99.90
8231;DHT22;4156;50.908;6.974;2023-10-19T00:41:46;13.10;99.90
8231;DHT22;4156;50.908;6.974;2023-10-19T00:44:13;13.10;99.90
8231;DHT22;4156;50.908;6.974;2023-10-19T00:46:42;13.10;99.90
8231;DHT22;4156;50.908;6.974;2023-10-19T00:49:08;13.10;99.90
8231;DHT22;4156;50.908;6.974;2023-10-19T00:51:39;13.10;99.90
8231;DHT22;4156;50.908;6.974;2023-10-19T00:54:13;13.10;99.90
8231;DHT22;4156;50.908;6.974;2023-10-19T00:56:46;13.20;99.90
8231;DHT22;4156;50.908;6.974;2023-10-19T00:59:19;13.20;99.90
8231;DHT22;4156;50.908;6.974;2023-10-19T01:01:56;13.20;99.90
8231;DHT22;4156;50.908;6.974;2023-10-19T01:04:40;13.20;99.90
8231;DHT22;4156;50.908;6.974;2023-10-19T01:07:09;13.20;99.90
8231;DHT22;4156;50.908;6.974;2023-10-19T01:09:42;13.20;99.90
8231;DHT22;4156;50.908;6.974;2023-10-19T01:12:10;13.30;99.90
8231;DHT22;4156;50.908;6.974;2023-10-19T01:15:12;13.30;99.90
8231;DHT22;4156;50.908;6.974;2023-10-19T01:17:52;13.30;99.90
8231;DHT22;4156;50.908;6.974;2023-10-19T01:20:20;13.30;99.90
8231;DHT22;4156;50.908;6.974;2023-10-19T01:22:54;13.30;99.90
8231;DHT22;4156;50.908;6.974;2023-10-19T01:28:37;13.30;99.90
8231;DHT22;4156;50.908;6.974;2023-10-19T01:31:06;13.30;99.90
8231;DHT22;4156;50.908;6.974;2023-10-19T01:33:32;13.30;99.90
8231;DHT22;4156;50.908;6.974;2023-10-19T01:36:00;13.30;99.90
8231;DHT22;4156;50.908;6.974;2023-10-19T01:38:50;13.30;99.90
8231;DHT22;4156;50.908;6.974;2023-10-19T01:41:22;13.30;99.90
8231;DHT22;4156;50.908;6.974;2023-10-19T01:43:50;13.40;99.90
8231;DHT22;4156;50.908;6.974;2023-10-19T01:46:19;13.40;99.90
8231;DHT22;4156;50.908;6.974;2023-10-19T01:48:50;13.40;99.90
8231;DHT22;4156;50.908;6.974;2023-10-19T01:51:20;13.40;99.90
8231;DHT22;4156;50.908;6.974;2023-10-19T01:53:46;13.40;99.90
8231;DHT22;4156;50.908;6.974;2023-10-19T01:56:13;13.40;99.90
8231;DHT22;4156;50.908;6.974;2023-10-19T01:58:41;13.40;99.90
8231;DHT22;4156;50.908;6.974;2023-10-19T02:01:07;13.40;99.90
8231;DHT22;4156;50.908;6.974;2023-10-19T02:04:01;13.40;99.90
8231;DHT22;4156;50.908;6.974;2023-10-19T02:06:28;13.40;99.90
8231;DHT22;4156;50.908;6.974;2023-10-19T02:09:02;13.40;99.90
8231;DHT22;4156;50.908;6.974;2023-10-19T02:11:35;13.40;99.90
8231;DHT22;4156;50.908;6.974;2023-10-19T02:14:07;13.40;99.90
8231;DHT22;4156;50.908;6.974;2023-10-19T02:16:40;13.40;99.90
8231;DHT22;4156;50.908;6.974;2023-10-19T02:19:06;13.40;99.90
8231;DHT22;4156;50.908;6.974;2023-10-19T02:21:31;13.40;99.90
8231;DHT22;4156;50.908;6.974;2023-10-19T02:23:58;13.40;99.90
8231;DHT22;4156;50.908;6.974;2023-10-19T02:26:24;13.40;99.90
8231;DHT22;4156;50.908;6.974;2023-10-19T02:28:53;13.40;99.90
8231;DHT22;4156;50.908;6.974;2023-10-19T02:31:19;13.40;99.90
8231;DHT22;4156;50.908;6.974;2023-10-19T02:33:53;13.40;99.90
8231;DHT22;4156;50.908;6.974;2023-10-19T02:36:28;13.40;99.90
8231;DHT22;4156;50.908;6.974;2023-10-19T02:38:55;13.40;99.90
8231;DHT22;4156;50.908;6.974;2023-10-19T02:41:25;13.40;99.90
8231;DHT22;4156;50.908;6.974;2023-10-19T02:43:55;13.40;99.90
8231;DHT22;4156;50.908;6.974;2023-10-19T02:46:31;13.50;99.90
8231;DHT22;4156;50.908;6.974;2023-10-19T02:49:02;13.50;99.90
8231;DHT22;4156;50.908;6.974;2023-10-19T02:51:31;13.50;99.90
8231;DHT22;4156;50.908;6.974;2023-10-19T02:53:57;13.50;99.90
8231;DHT22;4156;50.908;6.974;2023-10-19T02:56:26;13.50;99.90
8231;DHT22;4156;50.908;6.974;2023-10-19T02:58:55;13.50;99.90
8231;DHT22;4156;50.908;6.974;2023-10-19T03:01:27;13.50;99.90
8231;DHT22;4156;50.908;6.974;2023-10-19T03:03:55;13.50;99.90
8231;DHT22;4156;50.908;6.974;2023-10-19T03:06:26;13.50;99.90
8231;DHT22;4156;50.908;6.974;2023-10-19T03:08:56;13.50;99.90
8231;DHT22;4156;50.908;6.974;2023-10-19T03:11:30;13.50;99.90
8231;DHT22;4156;50.908;6.974;2023-10-19T03:13:57;13.50;99.90
8231;DHT22;4156;50.908;6.974;2023-10-19T03:16:23;13.60;99.90
8231;DHT22;4156;50.908;6.974;2023-10-19T03:18:50;13.60;99.90
8231;DHT22;4156;50.908;6.974;2023-10-19T03:21:19;13.60;99.90
8231;DHT22;4156;50.908;6.974;2023-10-19T03:23:49;13.60;99.90
8231;DHT22;4156;50.908;6.974;2023-10-19T03:26:15;13.60;99.90
8231;DHT22;4156;50.908;6.974;2023-10-19T03:28:49;13.60;99.90
8231;DHT22;4156;50.908;6.974;2023-10-19T03:31:21;13.60;99.90
8231;DHT22;4156;50.908;6.974;2023-10-19T03:33:48;13.60;99.90
8231;DHT22;4156;50.908;6.974;2023-10-19T03:36:16;13.60;99.90
8231;DHT22;4156;50.908;6.974;2023-10-19T03:38:41;13.60;99.90
8231;DHT22;4156;50.908;6.974;2023-10-19T03:41:09;13.60;99.90
8231;DHT22;4156;50.908;6.974;2023-10-19T03:43:36;13.60;99.90
8231;DHT22;4156;50.908;6.974;2023-10-19T03:46:05;13.60;99.90
8231;DHT22;4156;50.908;6.974;2023-10-19T03:48:39;13.60;99.90
8231;DHT22;4156;50.908;6.974;2023-10-19T03:51:05;13.60;99.90
8231;DHT22;4156;50.908;6.974;2023-10-19T03:53:31;13.60;99.90
8231;DHT22;4156;50.908;6.974;2023-10-19T03:55:58;13.60;99.90
8231;DHT22;4156;50.908;6.974;2023-10-19T03:58:24;13.60;99.90
8231;DHT22;4156;50.908;6.974;2023-10-19T04:00:49;13.60;99.90
8231;DHT22;4156;50.908;6.974;2023-10-19T04:03:16;13.60;99.90
8231;DHT22;4156;50.908;6.974;2023-10-19T04:05:50;13.60;99.90
8231;DHT22;4156;50.908;6.974;2023-10-19T04:08:16;13.60;99.90
8231;DHT22;4156;50.908;6.974;2023-10-19T04:10:46;13.60;99.90
8231;DHT22;4156;50.908;6.974;2023-10-19T04:13:32;13.60;99.90
8231;DHT22;4156;50.908;6.974;2023-10-19T04:15:57;13.60;99.90
8231;DHT22;4156;50.908;6.974;2023-10-19T04:18:23;13.60;99.90
8231;DHT22;4156;50.908;6.974;2023-10-19T04:20:51;13.60;99.90
8231;DHT22;4156;50.908;6.974;2023-10-19T04:23:19;13.60;99.90
8231;DHT22;4156;50.908;6.974;2023-10-19T04:25:47;13.60;99.90
8231;DHT22;4156;50.908;6.974;2023-10-19T04:28:13;13.60;99.90
8231;DHT22;4156;50.908;6.974;2023-10-19T04:30:39;13.60;99.90
8231;DHT22;4156;50.908;6.974;2023-10-19T04:33:05;13.60;99.90
8231;DHT22;4156;50.908;6.974;2023-10-19T04:35:35;13.60;99.90
8231;DHT22;4156;50.908;6.974;2023-10-19T04:38:03;13.60;99.90
8231;DHT22;4156;50.908;6.974;2023-10-19T04:40:28;13.60;99.90
8231;DHT22;4156;50.908;6.974;2023-10-19T04:42:54;13.60;99.90
8231;DHT22;4156;50.908;6.974;2023-10-19T04:45:20;13.60;99.90
8231;DHT22;4156;50.908;6.974;2023-10-19T04:47:45;13.60;99.90
8231;DHT22;4156;50.908;6.974;2023-10-19T04:50:12;13.60;99.90
8231;DHT22;4156;50.908;6.974;2023-10-19T04:52:38;13.60;99.90
8231;DHT22;4156;50.908;6.974;2023-10-19T04:55:04;13.60;99.90
8231;DHT22;4156;50.908;6.974;2023-10-19T04:57:30;13.70;99.90
8231;DHT22;4156;50.908;6.974;2023-10-19T04:59:56;13.70;99.90
8231;DHT22;4156;50.908;6.974;2023-10-19T05:02:22;13.70;99.90
8231;DHT22;4156;50.908;6.974;2023-10-19T05:04:48;13.70;99.90
8231;DHT22;4156;50.908;6.974;2023-10-19T05:07:14;13.70;99.90
8231;DHT22;4156;50.908;6.974;2023-10-19T05:09:43;13.70;99.90
8231;DHT22;4156;50.908;6.974;2023-10-19T05:12:09;13.70;99.90
8231;DHT22;4156;50.908;6.974;2023-10-19T05:14:39;13.70;99.90
8231;DHT22;4156;50.908;6.974;2023-10-19T05:17:05;13.70;99.90
8231;DHT22;4156;50.908;6.974;2023-10-19T05:19:31;13.70;99.90
8231;DHT22;4156;50.908;6.974;2023-10-19T05:21:59;13.70;99.90
8231;DHT22;4156;50.908;6.974;2023-10-19T05:24:24;13.70;99.90
8231;DHT22;4156;50.908;6.974;2023-10-19T05:26:50;13.70;99.90
8231;DHT22;4156;50.908;6.974;2023-10-19T05:29:16;13.70;99.90
8231;DHT22;4156;50.908;6.974;2023-10-19T05:31:41;13.70;99.90
8231;DHT22;4156;50.908;6.974;2023-10-19T05:34:07;13.80;99.90
8231;DHT22;4156;50.908;6.974;2023-10-19T05:36:33;13.80;99.90
8231;DHT22;4156;50.908;6.974;2023-10-19T05:38:59;13.80;99.90
8231;DHT22;4156;50.908;6.974;2023-10-19T05:41:25;13.80;99.90
8231;DHT22;4156;50.908;6.974;2023-10-19T05:43:52;13.80;99.90
8231;DHT22;4156;50.908;6.974;2023-10-19T05:46:18;13.80;99.90
8231;DHT22;4156;50.908;6.974;2023-10-19T05:48:47;13.80;99.90
8231;DHT22;4156;50.908;6.974;2023-10-19T05:51:14;13.80;99.90
8231;DHT22;4156;50.908;6.974;2023-10-19T05:53:40;13.80;99.90
8231;DHT22;4156;50.908;6.974;2023-10-19T05:56:07;13.80;99.90
8231;DHT22;4156;50.908;6.974;2023-10-19T05:58:32;13.80;99.90
8231;DHT22;4156;50.908;6.974;2023-10-19T06:00:58;13.80;99.90
8231;DHT22;4156;50.908;6.974;2023-10-19T06:03:24;13.80;99.90
8231;DHT22;4156;50.908;6.974;2023-10-19T06:05:50;13.80;99.90
8231;DHT22;4156;50.908;6.974;2023-10-19T06:08:15;13.90;99.90
8231;DHT22;4156;50.908;6.974;2023-10-19T06:10:41;13.90;99.90
8231;DHT22;4156;50.908;6.974;2023-10-19T06:13:07;13.90;99.90
8231;DHT22;4156;50.908;6.974;2023-10-19T06:15:35;13.90;99.90
8231;DHT22;4156;50.908;6.974;2023-10-19T06:18:00;13.90;99.90
8231;DHT22;4156;50.908;6.974;2023-10-19T06:20:26;13.90;99.90
8231;DHT22;4156;50.908;6.974;2023-10-19T06:22:52;13.90;99.90
8231;DHT22;4156;50.908;6.974;2023-10-19T06:25:19;13.90;99.90
8231;DHT22;4156;50.908;6.974;2023-10-19T06:27:47;13.90;99.90
8231;DHT22;4156;50.908;6.974;2023-10-19T06:30:14;13.90;99.90
8231;DHT22;4156;50.908;6.974;2023-10-19T06:32:45;13.90;99.90
8231;DHT22;4156;50.908;6.974;2023-10-19T06:35:11;14.00;99.90
8231;DHT22;4156;50.908;6.974;2023-10-19T06:37:36;14.00;99.90
8231;DHT22;4156;50.908;6.974;2023-10-19T06:40:02;14.00;99.90
8231;DHT22;4156;50.908;6.974;2023-10-19T06:42:28;14.00;99.90
8231;DHT22;4156;50.908;6.974;2023-10-19T06:44:53;14.00;99.90
8231;DHT22;4156;50.908;6.974;2023-10-19T06:47:21;14.00;99.90
8231;DHT22;4156;50.908;6.974;2023-10-19T06:49:48;14.00;99.90
8231;DHT22;4156;50.908;6.974;2023-10-19T06:52:14;14.00;99.90
8231;DHT22;4156;50.908;6.974;2023-10-19T06:54:41;14.00;99.90
8231;DHT22;4156;50.908;6.974;2023-10-19T06:57:07;14.10;99.90
8231;DHT22;4156;50.908;6.974;2023-10-19T06:59:35;14.10;99.90
8231;DHT22;4156;50.908;6.974;2023-10-19T07:02:00;14.10;99.90
8231;DHT22;4156;50.908;6.974;2023-10-19T07:04:27;14.10;99.90
8231;DHT22;4156;50.908;6.974;2023-10-19T07:06:53;14.10;99.90
8231;DHT22;4156;50.908;6.974;2023-10-19T07:09:19;14.10;99.90
8231;DHT22;4156;50.908;6.974;2023-10-19T07:11:46;14.10;99.90
8231;DHT22;4156;50.908;6.974;2023-10-19T07:14:12;14.10;99.90
8231;DHT22;4156;50.908;6.974;2023-10-19T07:16:39;14.20;99.90
8231;DHT22;4156;50.908;6.974;2023-10-19T07:19:05;14.10;99.90
8231;DHT22;4156;50.908;6.974;2023-10-19T07:21:31;14.20;99.90
8231;DHT22;4156;50.908;6.974;2023-10-19T07:24:01;14.20;99.90
8231;DHT22;4156;50.908;6.974;2023-10-19T07:26:31;14.20;99.90
8231;DHT22;4156;50.908;6.974;2023-10-19T07:28:59;14.20;99.90
8231;DHT22;4156;50.908;6.974;2023-10-19T07:31:25;14.30;99.90
8231;DHT22;4156;50.908;6.974;2023-10-19T07:33:53;14.30;99.90
8231;DHT22;4156;50.908;6.974;2023-10-19T07:36:21;14.30;99.90
8231;DHT22;4156;50.908;6.974;2023-10-19T07:38:46;14.30;99.90
8231;DHT22;4156;50.908;6.974;2023-10-19T07:41:13;14.30;99.90
8231;DHT22;4156;50.908;6.974;2023-10-19T07:43:38;14.30;99.90
8231;DHT22;4156;50.908;6.974;2023-10-19T07:46:04;14.30;99.90
8231;DHT22;4156;50.908;6.974;2023-10-19T07:48:30;14.40;99.90
8231;DHT22;4156;50.908;6.974;2023-10-19T07:50:55;14.40;99.90
8231;DHT22;4156;50.908;6.974;2023-10-19T07:53:21;14.40;99.90
8231;DHT22;4156;50.908;6.974;2023-10-19T07:55:47;14.40;99.90
8231;DHT22;4156;50.908;6.974;2023-10-19T07:58:13;14.40;99.90
8231;DHT22;4156;50.908;6.974;2023-10-19T08:00:38;14.40;99.90
8231;DHT22;4156;50.908;6.974;2023-10-19T08:03:05;14.40;99.90
8231;DHT22;4156;50.908;6.974;2023-10-19T08:05:31;14.40;99.90
8231;DHT22;4156;50.908;6.974;2023-10-19T08:07:57;14.40;99.90
8231;DHT22;4156;50.908;6.974;2023-10-19T08:10:24;14.40;99.90
8231;DHT22;4156;50.908;6.974;2023-10-19T08:12:52;14.40;99.90
8231;DHT22;4156;50.908;6.974;2023-10-19T08:15:18;14.40;99.90
8231;DHT22;4156;50.908;6.974;2023-10-19T08:17:47;14.50;99.90
8231;DHT22;4156;50.908;6.974;2023-10-19T08:20:14;14.50;99.90
8231;DHT22;4156;50.908;6.974;2023-10-19T08:22:51;14.50;99.90
8231;DHT22;4156;50.908;6.974;2023-10-19T08:25:17;14.50;99.90
8231;DHT22;4156;50.908;6.974;2023-10-19T08:27:43;14.50;99.90
8231;DHT22;4156;50.908;6.974;2023-10-19T08:30:20;14.50;99.90
8231;DHT22;4156;50.908;6.974;2023-10-19T08:32:46;14.60;99.90
8231;DHT22;4156;50.908;6.974;2023-10-19T08:35:19;14.60;99.90
8231;DHT22;4156;50.908;6.974;2023-10-19T08:37:52;14.60;99.90
8231;DHT22;4156;50.908;6.974;2023-10-19T08:40:18;14.60;99.90
8231;DHT22;4156;50.908;6.974;2023-10-19T08:42:45;14.60;99.90
8231;DHT22;4156;50.908;6.974;2023-10-19T08:45:12;14.70;99.90
8231;DHT22;4156;50.908;6.974;2023-10-19T08:48:07;14.70;99.90
8231;DHT22;4156;50.908;6.974;2023-10-19T08:50:34;14.70;99.90
8231;DHT22;4156;50.908;6.974;2023-10-19T08:53:01;14.80;99.90
8231;DHT22;4156;50.908;6.974;2023-10-19T08:55:31;14.80;99.90
8231;DHT22;4156;50.908;6.974;2023-10-19T08:57:57;14.90;99.90
8231;DHT22;4156;50.908;6.974;2023-10-19T09:00:26;14.90;99.90
8231;DHT22;4156;50.908;6.974;2023-10-19T09:02:53;14.90;99.90
8231;DHT22;4156;50.908;6.974;2023-10-19T09:05:19;14.90;99.90
8231;DHT22;4156;50.908;6.974;2023-10-19T09:07:47;15.00;99.90
8231;DHT22;4156;50.908;6.974;2023-10-19T09:10:20;15.00;99.90
8231;DHT22;4156;50.908;6.974;2023-10-19T09:12:59;15.10;99.90
8231;DHT22;4156;50.908;6.974;2023-10-19T09:15:27;15.10;99.90
8231;DHT22;4156;50.908;6.974;2023-10-19T09:17:53;15.10;99.90
8231;DHT22;4156;50.908;6.974;2023-10-19T09:20:21;15.10;99.90
8231;DHT22;4156;50.908;6.974;2023-10-19T09:22:55;15.10;99.90
8231;DHT22;4156;50.908;6.974;2023-10-19T09:25:23;15.10;99.90
8231;DHT22;4156;50.908;6.974;2023-10-19T09:27:49;15.20;99.90
8231;DHT22;4156;50.908;6.974;2023-10-19T09:30:15;15.20;99.90
8231;DHT22;4156;50.908;6.974;2023-10-19T09:32:46;15.20;99.90
8231;DHT22;4156;50.908;6.974;2023-10-19T09:35:13;15.20;99.90
8231;DHT22;4156;50.908;6.974;2023-10-19T09:37:41;15.20;99.90
8231;DHT22;4156;50.908;6.974;2023-10-19T09:40:09;15.20;99.90
8231;DHT22;4156;50.908;6.974;2023-10-19T09:42:43;15.30;99.90
8231;DHT22;4156;50.908;6.974;2023-10-19T09:45:12;15.30;99.90
8231;DHT22;4156;50.908;6.974;2023-10-19T09:47:41;15.30;99.90
8231;DHT22;4156;50.908;6.974;2023-10-19T09:50:12;15.40;99.90
8231;DHT22;4156;50.908;6.974;2023-10-19T09:52:39;15.40;99.90
8231;DHT22;4156;50.908;6.974;2023-10-19T09:55:29;15.40;99.90
8231;DHT22;4156;50.908;6.974;2023-10-19T09:58:26;15.40;99.90
8231;DHT22;4156;50.908;6.974;2023-10-19T10:00:54;15.40;99.90
8231;DHT22;4156;50.908;6.974;2023-10-19T10:03:45;15.50;99.90
8231;DHT22;4156;50.908;6.974;2023-10-19T10:06:12;15.50;99.90
8231;DHT22;4156;50.908;6.974;2023-10-19T10:08:42;15.50;99.90
8231;DHT22;4156;50.908;6.974;2023-10-19T10:11:22;15.50;99.90
8231;DHT22;4156;50.908;6.974;2023-10-19T10:14:05;15.50;99.90
8231;DHT22;4156;50.908;6.974;2023-10-19T10:16:48;15.50;99.90
8231;DHT22;4156;50.908;6.974;2023-10-19T10:19:25;15.60;99.90
8231;DHT22;4156;50.908;6.974;2023-10-19T10:22:31;15.60;99.90
8231;DHT22;4156;50.908;6.974;2023-10-19T10:24:57;15.70;99.90
8231;DHT22;4156;50.908;6.974;2023-10-19T10:27:41;15.70;99.90
8231;DHT22;4156;50.908;6.974;2023-10-19T10:31:08;15.80;99.90
8231;DHT22;4156;50.908;6.974;2023-10-19T10:33:56;15.80;99.90
8231;DHT22;4156;50.908;6.974;2023-10-19T10:36:27;15.80;99.90
8231;DHT22;4156;50.908;6.974;2023-10-19T10:39:19;15.80;99.90
8231;DHT22;4156;50.908;6.974;2023-10-19T10:41:59;15.90;99.90
8231;DHT22;4156;50.908;6.974;2023-10-19T10:44:47;15.90;99.90
8231;DHT22;4156;50.908;6.974;2023-10-19T10:47:45;16.00;99.90
8231;DHT22;4156;50.908;6.974;2023-10-19T10:50:42;16.00;99.90
8231;DHT22;4156;50.908;6.974;2023-10-19T10:53:11;16.00;99.90
8231;DHT22;4156;50.908;6.974;2023-10-19T10:55:40;16.00;99.90
8231;DHT22;4156;50.908;6.974;2023-10-19T10:58:36;16.00;99.90
8231;DHT22;4156;50.908;6.974;2023-10-19T11:01:34;16.10;99.90
8231;DHT22;4156;50.908;6.974;2023-10-19T11:04:10;16.10;99.90
8231;DHT22;4156;50.908;6.974;2023-10-19T11:06:54;16.10;99.90
8231;DHT22;4156;50.908;6.974;2023-10-19T11:09:25;16.10;99.90
8231;DHT22;4156;50.908;6.974;2023-10-19T11:11:55;16.10;99.90
8231;DHT22;4156;50.908;6.974;2023-10-19T11:15:05;16.10;99.90
8231;DHT22;4156;50.908;6.974;2023-10-19T11:17:42;16.10;99.90
8231;DHT22;4156;50.908;6.974;2023-10-19T11:20:22;16.20;99.90
8231;DHT22;4156;50.908;6.974;2023-10-19T11:22:56;16.20;99.90
8231;DHT22;4156;50.908;6.974;2023-10-19T11:25:57;16.20;99.90
8231;DHT22;4156;50.908;6.974;2023-10-19T11:29:05;16.20;99.90
8231;DHT22;4156;50.908;6.974;2023-10-19T11:32:04;16.30;99.90
8231;DHT22;4156;50.908;6.974;2023-10-19T11:39:28;16.30;99.90
8231;DHT22;4156;50.908;6.974;2023-10-19T11:42:53;16.30;99.90
8231;DHT22;4156;50.908;6.974;2023-10-19T11:46:07;16.30;99.90
8231;DHT22;4156;50.908;6.974;2023-10-19T11:49:00;16.30;99.90
8231;DHT22;4156;50.908;6.974;2023-10-19T11:52:19;16.30;99.90
8231;DHT22;4156;50.908;6.974;2023-10-19T11:59:10;16.40;99.90
8231;DHT22;4156;50.908;6.974;2023-10-19T12:02:29;16.50;99.90
8231;DHT22;4156;50.908;6.974;2023-10-19T12:09:02;16.50;99.90
8231;DHT22;4156;50.908;6.974;2023-10-19T12:15:09;16.60;99.90
8231;DHT22;4156;50.908;6.974;2023-10-19T12:18:26;16.50;99.90
8231;DHT22;4156;50.908;6.974;2023-10-19T12:22:16;16.50;99.90
8231;DHT22;4156;50.908;6.974;2023-10-19T12:25:53;16.60;99.90
8231;DHT22;4156;50.908;6.974;2023-10-19T12:29:05;16.60;99.90
8231;DHT22;4156;50.908;6.974;2023-10-19T12:32:19;16.60;99.90
8231;DHT22;4156;50.908;6.974;2023-10-19T12:35:48;16.60;99.90
8231;DHT22;4156;50.908;6.974;2023-10-19T12:39:30;16.70;99.90
8231;DHT22;4156;50.908;6.974;2023-10-19T12:42:44;16.70;99.90
8231;DHT22;4156;50.908;6.974;2023-10-19T12:46:00;16.70;99.90
8231;DHT22;4156;50.908;6.974;2023-10-19T12:49:24;16.70;99.90
8231;DHT22;4156;50.908;6.974;2023-10-19T12:52:54;16.70;99.90
8231;DHT22;4156;50.908;6.974;2023-10-19T12:56:32;16.70;99.90
8231;DHT22;4156;50.908;6.974;2023-10-19T12:59:02;16.80;99.90
8231;DHT22;4156;50.908;6.974;2023-10-19T13:06:04;16.80;99.90
8231;DHT22;4156;50.908;6.974;2023-10-19T13:09:27;16.80;99.90
8231;DHT22;4156;50.908;6.974;2023-10-19T13:12:56;16.90;99.90
8231;DHT22;4156;50.908;6.974;2023-10-19T13:16:35;16.90;99.90
8231;DHT22;4156;50.908;6.974;2023-10-19T13:19:20;16.90;99.90
8231;DHT22;4156;50.908;6.974;2023-10-19T13:23:09;16.90;99.90
8231;DHT22;4156;50.908;6.974;2023-10-19T13:29:50;16.90;99.90
8231;DHT22;4156;50.908;6.974;2023-10-19T13:40:54;16.90;99.90
8231;DHT22;4156;50.908;6.974;2023-10-19T13:44:02;16.90;99.90
8231;DHT22;4156;50.908;6.974;2023-10-19T13:46:37;16.90;99.90
8231;DHT22;4156;50.908;6.974;2023-10-19T13:49:24;16.90;99.90
8231;DHT22;4156;50.908;6.974;2023-10-19T13:51:53;16.90;99.90
8231;DHT22;4156;50.908;6.974;2023-10-19T13:54:21;16.90;99.90
8231;DHT22;4156;50.908;6.974;2023-10-19T13:56:51;16.90;99.90
8231;DHT22;4156;50.908;6.974;2023-10-19T13:59:20;16.90;99.90
8231;DHT22;4156;50.908;6.974;2023-10-19T14:01:50;16.90;99.90
8231;DHT22;4156;50.908;6.974;2023-10-19T14:18:55;16.90;99.90
8231;DHT22;4156;50.908;6.974;2023-10-19T14:22:34;16.90;99.90
8231;DHT22;4156;50.908;6.974;2023-10-19T14:25:18;16.90;99.90
8231;DHT22;4156;50.908;6.974;2023-10-19T14:27:50;16.90;99.90
8231;DHT22;4156;50.908;6.974;2023-10-19T14:30:26;16.90;99.90
8231;DHT22;4156;50.908;6.974;2023-10-19T14:32:58;16.90;99.90
8231;DHT22;4156;50.908;6.974;2023-10-19T14:35:46;16.90;99.90
8231;DHT22;4156;50.908;6.974;2023-10-19T14:38:47;16.90;99.90
8231;DHT22;4156;50.908;6.974;2023-10-19T14:41:26;16.90;99.90
8231;DHT22;4156;50.908;6.974;2023-10-19T14:44:09;16.90;99.90
8231;DHT22;4156;50.908;6.974;2023-10-19T14:50:43;16.90;99.90
8231;DHT22;4156;50.908;6.974;2023-10-19T14:54:07;16.90;99.90
8231;DHT22;4156;50.908;6.974;2023-10-19T14:56:57;16.90;99.90
8231;DHT22;4156;50.908;6.974;2023-10-19T14:59:25;16.90;99.90
8231;DHT22;4156;50.908;6.974;2023-10-19T15:01:53;16.90;99.90
8231;DHT22;4156;50.908;6.974;2023-10-19T15:04:24;17.00;99.90
8231;DHT22;4156;50.908;6.974;2023-10-19T15:06:49;17.00;99.90
8231;DHT22;4156;50.908;6.974;2023-10-19T15:09:15;17.00;99.90
8231;DHT22;4156;50.908;6.974;2023-10-19T15:11:45;17.00;99.90
8231;DHT22;4156;50.908;6.974;2023-10-19T15:14:11;17.00;99.90
8231;DHT22;4156;50.908;6.974;2023-10-19T15:16:37;17.00;99.90
8231;DHT22;4156;50.908;6.974;2023-10-19T15:19:02;17.00;99.90
8231;DHT22;4156;50.908;6.974;2023-10-19T15:21:29;17.00;99.90
8231;DHT22;4156;50.908;6.974;2023-10-19T15:23:54;17.00;99.90
8231;DHT22;4156;50.908;6.974;2023-10-19T15:26:20;17.10;99.90
8231;DHT22;4156;50.908;6.974;2023-10-19T15:28:46;17.10;99.90
8231;DHT22;4156;50.908;6.974;2023-10-19T15:31:11;17.10;99.90
8231;DHT22;4156;50.908;6.974;2023-10-19T15:33:37;17.10;99.90
8231;DHT22;4156;50.908;6.974;2023-10-19T15:36:03;17.10;99.90
8231;DHT22;4156;50.908;6.974;2023-10-19T15:38:28;17.10;99.90
8231;DHT22;4156;50.908;6.974;2023-10-19T15:40:54;17.10;99.90
8231;DHT22;4156;50.908;6.974;2023-10-19T15:43:20;17.10;99.90
8231;DHT22;4156;50.908;6.974;2023-10-19T15:45:46;17.10;99.90
8231;DHT22;4156;50.908;6.974;2023-10-19T15:48:14;17.10;99.90
8231;DHT22;4156;50.908;6.974;2023-10-19T15:50:40;17.10;99.90
8231;DHT22;4156;50.908;6.974;2023-10-19T15:53:09;17.10;99.90
8231;DHT22;4156;50.908;6.974;2023-10-19T15:55:35;17.10;99.90
8231;DHT22;4156;50.908;6.974;2023-10-19T15:58:01;17.10;99.90
8231;DHT22;4156;50.908;6.974;2023-10-19T16:00:27;17.10;99.90
8231;DHT22;4156;50.908;6.974;2023-10-19T16:02:53;17.10;99.90
8231;DHT22;4156;50.908;6.974;2023-10-19T16:05:19;17.10;99.90
8231;DHT22;4156;50.908;6.974;2023-10-19T16:07:46;17.20;99.90
8231;DHT22;4156;50.908;6.974;2023-10-19T16:10:11;17.20;99.90
8231;DHT22;4156;50.908;6.974;2023-10-19T16:12:41;17.20;99.90
8231;DHT22;4156;50.908;6.974;2023-10-19T16:15:08;17.20;99.90
8231;DHT22;4156;50.908;6.974;2023-10-19T16:17:34;17.10;99.90
8231;DHT22;4156;50.908;6.974;2023-10-19T16:20:01;17.20;99.90
8231;DHT22;4156;50.908;6.974;2023-10-19T16:22:27;17.20;99.90
8231;DHT22;4156;50.908;6.974;2023-10-19T16:24:53;17.20;99.90
8231;DHT22;4156;50.908;6.974;2023-10-19T16:27:19;17.20;99.90
8231;DHT22;4156;50.908;6.974;2023-10-19T16:29:44;17.20;99.90
8231;DHT22;4156;50.908;6.974;2023-10-19T16:32:10;17.20;99.90
8231;DHT22;4156;50.908;6.974;2023-10-19T16:34:36;17.20;99.90
8231;DHT22;4156;50.908;6.974;2023-10-19T16:37:02;17.20;99.90
8231;DHT22;4156;50.908;6.974;2023-10-19T16:39:29;17.20;99.90
8231;DHT22;4156;50.908;6.974;2023-10-19T16:41:54;17.10;99.90
8231;DHT22;4156;50.908;6.974;2023-10-19T16:44:20;17.10;99.90
8231;DHT22;4156;50.908;6.974;2023-10-19T16:46:46;17.10;99.90
8231;DHT22;4156;50.908;6.974;2023-10-19T16:49:13;17.10;99.90
8231;DHT22;4156;50.908;6.974;2023-10-19T16:51:41;17.10;99.90
8231;DHT22;4156;50.908;6.974;2023-10-19T16:54:11;17.00;99.90
8231;DHT22;4156;50.908;6.974;2023-10-19T16:56:37;17.10;99.90
8231;DHT22;4156;50.908;6.974;2023-10-19T16:59:05;17.00;99.90
8231;DHT22;4156;50.908;6.974;2023-10-19T17:01:32;17.00;99.90
8231;DHT22;4156;50.908;6.974;2023-10-19T17:03:57;17.00;99.90
8231;DHT22;4156;50.908;6.974;2023-10-19T17:06:23;16.90;99.90
8231;DHT22;4156;50.908;6.974;2023-10-19T17:08:49;16.90;99.90
8231;DHT22;4156;50.908;6.974;2023-10-19T17:11:14;16.90;99.90
8231;DHT22;4156;50.908;6.974;2023-10-19T17:13:41;17.00;99.90
8231;DHT22;4156;50.908;6.974;2023-10-19T17:16:07;16.90;99.90
8231;DHT22;4156;50.908;6.974;2023-10-19T17:18:32;17.00;99.90
8231;DHT22;4156;50.908;6.974;2023-10-19T17:21:01;17.00;99.90
8231;DHT22;4156;50.908;6.974;2023-10-19T17:23:27;17.00;99.90
8231;DHT22;4156;50.908;6.974;2023-10-19T17:25:53;17.00;99.90
8231;DHT22;4156;50.908;6.974;2023-10-19T17:28:19;17.00;99.90
8231;DHT22;4156;50.908;6.974;2023-10-19T17:30:45;17.00;99.90
8231;DHT22;4156;50.908;6.974;2023-10-19T17:33:11;17.00;99.90
8231;DHT22;4156;50.908;6.974;2023-10-19T17:35:38;17.00;99.90
8231;DHT22;4156;50.908;6.974;2023-10-19T17:38:05;17.00;99.90
8231;DHT22;4156;50.908;6.974;2023-10-19T17:40:31;17.00;99.90